Michalis K — SY7349 — position and weather

sailwx.info

Track history (hours):
 
Tides and Currents Weather Stations Pressure Air Temp Water Temp Dewpoint Dewpoint Depression Visibility Wind Speed Wind Dir Waves Ship Positions

Michalis K

Last reported at 2018-Feb-19 04:00 UTC. Time now 2018-Feb-19 04:24 UTC.
Position N 40°57' E 024°28'.

Length 63 m; draft 3 m.

Type: Cargo ship. MMSI: 240581000.

Date/timePositionNaut miles runAvg speedWind from/ knotsBaromVisibWave heightAir tempDewpointWater temp
2018-Feb-19 04:00N 40°57' E 024°28'0 0.0
2018-Feb-19 03:31N 40°57' E 024°28'0 0.0
2018-Feb-19 03:00N 40°57' E 024°28'0 0.0
2018-Feb-19 02:30N 40°57' E 024°28'0 0.0
2018-Feb-19 02:01N 40°57' E 024°28'0 0.0
2018-Feb-19 01:30N 40°57' E 024°28'0 0.0
2018-Feb-19 01:00N 40°57' E 024°28'0 0.0
2018-Feb-19 00:31N 40°57' E 024°28'0 0.0
2018-Feb-19 00:01N 40°57' E 024°28'0 0.0
2018-Feb-18 23:30N 40°57' E 024°28'0 0.0
2018-Feb-18 23:01N 40°57' E 024°28'0 0.0
2018-Feb-18 22:30N 40°57' E 024°28'0 0.0
2018-Feb-18 22:00N 40°57' E 024°28'0 0.0
2018-Feb-18 21:31N 40°57' E 024°28'0 0.0
2018-Feb-18 21:00N 40°57' E 024°28'0 0.0
2018-Feb-18 20:30N 40°57' E 024°28'0 0.0
2018-Feb-18 20:00N 40°57' E 024°28'0 0.0
2018-Feb-18 19:31N 40°57' E 024°28'0 0.0
2018-Feb-18 19:00N 40°57' E 024°28'0 0.0
2018-Feb-18 18:30N 40°57' E 024°28'0 0.0
2018-Feb-18 18:01N 40°57' E 024°28'0 0.0
2018-Feb-18 17:30N 40°57' E 024°28'0 0.0
2018-Feb-18 17:00N 40°57' E 024°28'0 0.0
2018-Feb-18 16:31N 40°57' E 024°28'0 0.0
2018-Feb-18 16:00N 40°57' E 024°28'0 0.0
2018-Feb-18 15:30N 40°57' E 024°28'0 0.0
2018-Feb-18 15:01N 40°57' E 024°28'0 0.0
2018-Feb-18 14:31N 40°57' E 024°28'0 0.0
2018-Feb-18 14:00N 40°57' E 024°28'0 0.0
2018-Feb-18 13:30N 40°57' E 024°28'0 0.0
2018-Feb-18 13:01N 40°57' E 024°28'0 0.0
2018-Feb-18 12:30N 40°57' E 024°28'0 0.0
2018-Feb-18 12:01N 40°57' E 024°28'0 0.0
2018-Feb-18 11:30N 40°57' E 024°28'0 0.0
2018-Feb-18 11:00N 40°57' E 024°28'0 0.0
2018-Feb-18 10:31N 40°57' E 024°28'0 0.0
2018-Feb-18 10:01N 40°57' E 024°28'0 0.0
2018-Feb-18 09:31N 40°57' E 024°28'1 1.4
2018-Feb-18 09:00N 40°57' E 024°29'0 0.4
2018-Feb-18 08:31N 40°56' E 024°29'0 0.0
2018-Feb-18 08:00N 40°56' E 024°29'0 0.0
2018-Feb-18 07:31N 40°56' E 024°29'0 0.0
2018-Feb-18 07:01N 40°56' E 024°29'0 0.0
2018-Feb-18 06:30N 40°56' E 024°29'0 0.0
2018-Feb-18 06:00N 40°56' E 024°29'0 0.0
2018-Feb-18 05:30N 40°56' E 024°29'0 0.0
2018-Feb-18 05:00N 40°56' E 024°29'0 0.0
2018-Feb-18 04:30N 40°56' E 024°29'0 0.0
2018-Feb-18 04:00N 40°56' E 024°29'0 0.0
2018-Feb-18 03:30N 40°56' E 024°29'0 0.0
2018-Feb-18 03:00N 40°56' E 024°29'0 0.0
2018-Feb-18 02:30N 40°56' E 024°29'0 0.0
2018-Feb-18 02:00N 40°56' E 024°29'0 0.1
2018-Feb-18 01:30N 40°56' E 024°29'0 0.0
2018-Feb-18 01:01N 40°56' E 024°29'0 0.0
2018-Feb-18 00:31N 40°56' E 024°29'0 0.0
2018-Feb-18 00:01N 40°56' E 024°29'0 0.0
2018-Feb-17 23:30N 40°56' E 024°29'0 0.0
2018-Feb-17 23:01N 40°56' E 024°29'2 3.7
2018-Feb-17 22:31N 40°54' E 024°30'4 8.2
2018-Feb-17 22:00N 40°50' E 024°29'4 8.3
2018-Feb-17 21:30N 40°46' E 024°28'4 8.4
2018-Feb-17 21:00N 40°42' E 024°28'4 8.5
2018-Feb-17 20:31N 40°38' E 024°27'4 8.7
2018-Feb-17 20:00N 40°34' E 024°26'8 8.7
2018-Feb-17 19:06N 40°26' E 024°26'1 8.6
2018-Feb-17 19:00N 40°25' E 024°26'4 8.3
2018-Feb-17 18:30N 40°21' E 024°26'4 8.1
2018-Feb-17 18:00N 40°17' E 024°26'4 7.9
2018-Feb-17 17:30N 40°13' E 024°26'12 7.2
2018-Feb-17 15:48N 40°01' E 024°20'2 7.5
2018-Feb-17 15:30N 39°60' E 024°18'4 7.7
2018-Feb-17 15:01N 39°57' E 024°15'4 7.4
2018-Feb-17 14:29N 39°54' E 024°12'4 7.6
2018-Feb-17 14:00N 39°51' E 024°09'4 8.0
2018-Feb-17 13:29N 39°48' E 024°05'98 2.6
2018-Feb-16 00:03N 38°10' E 024°08'2 6.2
2018-Feb-15 23:42N 38°08' E 024°06'1 6.9
2018-Feb-15 23:30N 38°07' E 024°06'34 5.2
2018-Feb-15 16:58N 37°38' E 023°42'5 8.3
2018-Feb-15 16:25N 37°39' E 023°36'4 8.1
2018-Feb-15 15:59N 37°39' E 023°32'5 8.3
2018-Feb-15 15:25N 37°39' E 023°26'3 8.3
2018-Feb-15 15:00N 37°39' E 023°22'4 7.9
2018-Feb-15 14:30N 37°41' E 023°17'4 8.9
2018-Feb-15 14:00N 37°45' E 023°15'4 8.8
2018-Feb-15 13:30N 37°49' E 023°12'4 8.8
2018-Feb-15 13:00N 37°52' E 023°07'4 8.7
2018-Feb-15 12:30N 37°54' E 023°03'2 3.0
2018-Feb-15 12:01N 37°55' E 023°01'0 0.0
2018-Feb-15 11:30N 37°55' E 023°01'0 0.0
2018-Feb-15 11:00N 37°55' E 023°01'0 0.0
2018-Feb-15 10:31N 37°55' E 023°01'0 0.0
2018-Feb-15 10:01N 37°55' E 023°01'0 0.0
2018-Feb-15 09:31N 37°55' E 023°01'0 0.0
2018-Feb-15 09:00N 37°55' E 023°01'0 0.0
2018-Feb-15 08:30N 37°55' E 023°01'0 0.0
2018-Feb-15 08:01N 37°55' E 023°01'0 0.0
2018-Feb-15 07:30N 37°55' E 023°01'0 0.0
2018-Feb-15 07:00N 37°55' E 023°01'0 0.0
2018-Feb-15 06:30N 37°55' E 023°01'0 0.0
2018-Feb-15 06:00N 37°55' E 023°01'0 0.0
2018-Feb-15 05:30N 37°55' E 023°01'0 0.0
2018-Feb-15 05:00N 37°55' E 023°01'0 0.0
2018-Feb-15 04:30N 37°55' E 023°01'0 0.0
2018-Feb-15 04:01N 37°55' E 023°01'0 0.0
2018-Feb-15 03:31N 37°55' E 023°01'0 0.0
2018-Feb-15 03:00N 37°55' E 023°01'0 0.0
2018-Feb-15 02:31N 37°55' E 023°01'0 0.0
2018-Feb-15 02:00N 37°55' E 023°01'0 0.0
2018-Feb-15 01:30N 37°55' E 023°01'0 0.0
2018-Feb-15 01:00N 37°55' E 023°01'0 0.0
2018-Feb-15 00:30N 37°55' E 023°01'0 0.0
2018-Feb-15 00:01N 37°55' E 023°01'0 0.0
2018-Feb-14 23:30N 37°55' E 023°01'0 0.0
2018-Feb-14 23:01N 37°55' E 023°01'0 0.0
2018-Feb-14 22:31N 37°55' E 023°01'0 0.1
2018-Feb-14 22:01N 37°55' E 023°01'0 0.0
2018-Feb-14 21:31N 37°55' E 023°01'0 0.0
2018-Feb-14 21:01N 37°55' E 023°01'0 0.0
2018-Feb-14 20:30N 37°55' E 023°01'0 0.0
2018-Feb-14 20:00N 37°55' E 023°01'0 0.0
2018-Feb-14 19:30N 37°55' E 023°01'0 0.0
2018-Feb-14 19:01N 37°55' E 023°01'0 0.0
2018-Feb-14 18:30N 37°55' E 023°01'0 0.0
2018-Feb-14 18:01N 37°55' E 023°01'0 0.0
2018-Feb-14 17:30N 37°55' E 023°01'0 0.0
2018-Feb-14 17:00N 37°55' E 023°01'0 0.0
2018-Feb-14 16:31N 37°55' E 023°01'0 0.0
2018-Feb-14 16:01N 37°55' E 023°01'0 0.5
2018-Feb-14 15:30N 37°55' E 023°01'0 0.0
2018-Feb-14 15:00N 37°55' E 023°01'0 0.0
2018-Feb-14 14:31N 37°55' E 023°01'0 0.0
2018-Feb-14 14:00N 37°55' E 023°01'0 0.0
2018-Feb-14 13:31N 37°55' E 023°01'0 0.0
2018-Feb-14 13:01N 37°55' E 023°01'0 0.0
2018-Feb-14 12:31N 37°55' E 023°01'0 0.0
2018-Feb-14 12:01N 37°55' E 023°01'0 0.0
2018-Feb-14 11:30N 37°55' E 023°01'0 0.0
2018-Feb-14 11:01N 37°55' E 023°01'0 0.0
2018-Feb-14 10:31N 37°55' E 023°01'0 0.0
2018-Feb-14 10:01N 37°55' E 023°01'0 0.0
2018-Feb-14 09:30N 37°55' E 023°01'0 0.0
2018-Feb-14 09:01N 37°55' E 023°01'0 0.0
2018-Feb-14 08:31N 37°55' E 023°01'0 0.0
2018-Feb-14 08:01N 37°55' E 023°01'0 0.0
2018-Feb-14 07:31N 37°55' E 023°01'0 0.0
2018-Feb-14 07:00N 37°55' E 023°01'0 0.0
2018-Feb-14 06:30N 37°55' E 023°01'0 0.0
2018-Feb-14 06:01N 37°55' E 023°01'0 0.0
2018-Feb-14 05:31N 37°55' E 023°01'0 0.0
2018-Feb-14 05:01N 37°55' E 023°01'0 0.0
2018-Feb-14 04:30N 37°55' E 023°01'0 0.0
2018-Feb-14 04:00N 37°55' E 023°01'0 0.1
2018-Feb-14 03:30N 37°55' E 023°01'3 6.1
2018-Feb-14 03:00N 37°54' E 023°05'4 7.4
2018-Feb-14 02:30N 37°53' E 023°09'4 7.5
2018-Feb-14 02:01N 37°52' E 023°14'4 7.7
2018-Feb-14 01:30N 37°52' E 023°19'4 7.6
2018-Feb-14 01:00N 37°51' E 023°23'4 7.1
2018-Feb-14 00:31N 37°51' E 023°28'4 7.4
2018-Feb-14 00:01N 37°50' E 023°33'4 7.2
2018-Feb-13 23:30N 37°51' E 023°37'3 6.1
2018-Feb-13 23:01N 37°49' E 023°40'4 7.3
2018-Feb-13 22:31N 37°45' E 023°42'151 6.0
2018-Feb-12 21:29N 40°12' E 024°28'4 8.1
2018-Feb-12 20:59N 40°16' E 024°28'4 8.0
2018-Feb-12 20:30N 40°20' E 024°27'4 8.0
2018-Feb-12 20:00N 40°24' E 024°27'4 7.8
2018-Feb-12 19:26N 40°29' E 024°27'4 7.7
2018-Feb-12 18:57N 40°32' E 024°27'4 7.5
2018-Feb-12 18:29N 40°36' E 024°28'4 8.0
2018-Feb-12 17:59N 40°40' E 024°28'4 8.2
2018-Feb-12 17:30N 40°44' E 024°28'4 8.0
2018-Feb-12 17:00N 40°48' E 024°28'4 7.9
2018-Feb-12 16:31N 40°52' E 024°29'4 7.9
2018-Feb-12 16:01N 40°55' E 024°29'1 2.5
2018-Feb-12 15:31N 40°57' E 024°28'0 0.0
2018-Feb-12 15:01N 40°57' E 024°28'0 0.0
2018-Feb-12 14:31N 40°57' E 024°28'0 0.0
2018-Feb-12 14:01N 40°57' E 024°28'0 0.0
2018-Feb-12 13:30N 40°57' E 024°28'0 0.0
2018-Feb-12 13:00N 40°57' E 024°28'0 0.0
2018-Feb-12 12:30N 40°57' E 024°28'0 0.0
2018-Feb-12 12:01N 40°57' E 024°28'0 0.0
2018-Feb-12 11:30N 40°57' E 024°28'0 0.0
2018-Feb-12 11:01N 40°57' E 024°28'0 0.0
2018-Feb-12 10:31N 40°57' E 024°28'0 0.0
2018-Feb-12 10:00N 40°57' E 024°28'0 0.0
2018-Feb-12 09:31N 40°57' E 024°28'0 0.0
2018-Feb-12 09:01N 40°57' E 024°28'0 0.0
2018-Feb-12 08:30N 40°57' E 024°28'0 0.0
2018-Feb-12 08:00N 40°57' E 024°28'0 0.0
2018-Feb-12 07:31N 40°57' E 024°28'0 0.0
2018-Feb-12 07:01N 40°57' E 024°28'0 0.0
2018-Feb-12 06:30N 40°57' E 024°28'0 0.0
2018-Feb-12 06:00N 40°57' E 024°28'0 0.0
2018-Feb-12 05:30N 40°57' E 024°28'2 3.7
2018-Feb-12 05:01N 40°55' E 024°30'0 0.2
2018-Feb-12 04:30N 40°55' E 024°30'2 4.5
2018-Feb-12 04:01N 40°53' E 024°29'4 8.4
2018-Feb-12 03:30N 40°49' E 024°29'4 8.2
2018-Feb-12 03:00N 40°44' E 024°28'4 8.4
2018-Feb-12 02:30N 40°40' E 024°29'4 8.6
2018-Feb-12 02:00N 40°36' E 024°29'5 8.9
2018-Feb-12 01:28N 40°31' E 024°31'4 8.4
2018-Feb-12 00:59N 40°27' E 024°31'4 8.4
2018-Feb-12 00:30N 40°23' E 024°32'5 8.3
2018-Feb-11 23:57N 40°19' E 024°33'4 8.4
2018-Feb-11 23:26N 40°15' E 024°34'56 7.7
2018-Feb-11 16:06N 39°21' E 024°13'1 6.7
2018-Feb-11 15:56N 39°20' E 024°12'101 2.0
2018-Feb-09 12:31N 37°55' E 023°01'0 0.0
2018-Feb-09 09:31N 37°55' E 023°01'0 0.0
2018-Feb-09 05:31N 37°55' E 023°01'  
Track history (hours):
 
Tides and Currents Weather Stations Pressure Air Temp Water Temp Dewpoint Dewpoint Depression Visibility Wind Speed Wind Dir Waves Ship Positions

Michalis K

Last reported at 2018-Feb-19 04:00 UTC. Time now 2018-Feb-19 04:24 UTC.
Position N 40°57' E 024°28'.

Length 63 m; draft 3 m.

Type: Cargo ship. MMSI: 240581000.

Date/timePositionNaut miles runAvg speedWind from/ knotsBaromVisibWave heightAir tempDewpointWater temp
2018-Feb-19 04:00N 40°57' E 024°28'0 0.0
2018-Feb-19 03:31N 40°57' E 024°28'0 0.0
2018-Feb-19 03:00N 40°57' E 024°28'0 0.0
2018-Feb-19 02:30N 40°57' E 024°28'0 0.0
2018-Feb-19 02:01N 40°57' E 024°28'0 0.0
2018-Feb-19 01:30N 40°57' E 024°28'0 0.0
2018-Feb-19 01:00N 40°57' E 024°28'0 0.0
2018-Feb-19 00:31N 40°57' E 024°28'0 0.0
2018-Feb-19 00:01N 40°57' E 024°28'0 0.0
2018-Feb-18 23:30N 40°57' E 024°28'0 0.0
2018-Feb-18 23:01N 40°57' E 024°28'0 0.0
2018-Feb-18 22:30N 40°57' E 024°28'0 0.0
2018-Feb-18 22:00N 40°57' E 024°28'0 0.0
2018-Feb-18 21:31N 40°57' E 024°28'0 0.0
2018-Feb-18 21:00N 40°57' E 024°28'0 0.0
2018-Feb-18 20:30N 40°57' E 024°28'0 0.0
2018-Feb-18 20:00N 40°57' E 024°28'0 0.0
2018-Feb-18 19:31N 40°57' E 024°28'0 0.0
2018-Feb-18 19:00N 40°57' E 024°28'0 0.0
2018-Feb-18 18:30N 40°57' E 024°28'0 0.0
2018-Feb-18 18:01N 40°57' E 024°28'0 0.0
2018-Feb-18 17:30N 40°57' E 024°28'0 0.0
2018-Feb-18 17:00N 40°57' E 024°28'0 0.0
2018-Feb-18 16:31N 40°57' E 024°28'0 0.0
2018-Feb-18 16:00N 40°57' E 024°28'0 0.0
2018-Feb-18 15:30N 40°57' E 024°28'0 0.0
2018-Feb-18 15:01N 40°57' E 024°28'0 0.0
2018-Feb-18 14:31N 40°57' E 024°28'0 0.0
2018-Feb-18 14:00N 40°57' E 024°28'0 0.0
2018-Feb-18 13:30N 40°57' E 024°28'0 0.0
2018-Feb-18 13:01N 40°57' E 024°28'0 0.0
2018-Feb-18 12:30N 40°57' E 024°28'0 0.0
2018-Feb-18 12:01N 40°57' E 024°28'0 0.0
2018-Feb-18 11:30N 40°57' E 024°28'0 0.0
2018-Feb-18 11:00N 40°57' E 024°28'0 0.0
2018-Feb-18 10:31N 40°57' E 024°28'0 0.0
2018-Feb-18 10:01N 40°57' E 024°28'0 0.0
2018-Feb-18 09:31N 40°57' E 024°28'1 1.4
2018-Feb-18 09:00N 40°57' E 024°29'0 0.4
2018-Feb-18 08:31N 40°56' E 024°29'0 0.0
2018-Feb-18 08:00N 40°56' E 024°29'0 0.0
2018-Feb-18 07:31N 40°56' E 024°29'0 0.0
2018-Feb-18 07:01N 40°56' E 024°29'0 0.0
2018-Feb-18 06:30N 40°56' E 024°29'0 0.0
2018-Feb-18 06:00N 40°56' E 024°29'0 0.0
2018-Feb-18 05:30N 40°56' E 024°29'0 0.0
2018-Feb-18 05:00N 40°56' E 024°29'0 0.0
2018-Feb-18 04:30N 40°56' E 024°29'0 0.0
2018-Feb-18 04:00N 40°56' E 024°29'0 0.0
2018-Feb-18 03:30N 40°56' E 024°29'0 0.0
2018-Feb-18 03:00N 40°56' E 024°29'0 0.0
2018-Feb-18 02:30N 40°56' E 024°29'0 0.0
2018-Feb-18 02:00N 40°56' E 024°29'0 0.1
2018-Feb-18 01:30N 40°56' E 024°29'0 0.0
2018-Feb-18 01:01N 40°56' E 024°29'0 0.0
2018-Feb-18 00:31N 40°56' E 024°29'0 0.0
2018-Feb-18 00:01N 40°56' E 024°29'0 0.0
2018-Feb-17 23:30N 40°56' E 024°29'0 0.0
2018-Feb-17 23:01N 40°56' E 024°29'2 3.7
2018-Feb-17 22:31N 40°54' E 024°30'4 8.2
2018-Feb-17 22:00N 40°50' E 024°29'4 8.3
2018-Feb-17 21:30N 40°46' E 024°28'4 8.4
2018-Feb-17 21:00N 40°42' E 024°28'4 8.5
2018-Feb-17 20:31N 40°38' E 024°27'4 8.7
2018-Feb-17 20:00N 40°34' E 024°26'8 8.7
2018-Feb-17 19:06N 40°26' E 024°26'1 8.6
2018-Feb-17 19:00N 40°25' E 024°26'4 8.3
2018-Feb-17 18:30N 40°21' E 024°26'4 8.1
2018-Feb-17 18:00N 40°17' E 024°26'4 7.9
2018-Feb-17 17:30N 40°13' E 024°26'12 7.2
2018-Feb-17 15:48N 40°01' E 024°20'2 7.5
2018-Feb-17 15:30N 39°60' E 024°18'4 7.7
2018-Feb-17 15:01N 39°57' E 024°15'4 7.4
2018-Feb-17 14:29N 39°54' E 024°12'4 7.6
2018-Feb-17 14:00N 39°51' E 024°09'4 8.0
2018-Feb-17 13:29N 39°48' E 024°05'98 2.6
2018-Feb-16 00:03N 38°10' E 024°08'2 6.2
2018-Feb-15 23:42N 38°08' E 024°06'1 6.9
2018-Feb-15 23:30N 38°07' E 024°06'34 5.2
2018-Feb-15 16:58N 37°38' E 023°42'5 8.3
2018-Feb-15 16:25N 37°39' E 023°36'4 8.1
2018-Feb-15 15:59N 37°39' E 023°32'5 8.3
2018-Feb-15 15:25N 37°39' E 023°26'3 8.3
2018-Feb-15 15:00N 37°39' E 023°22'4 7.9
2018-Feb-15 14:30N 37°41' E 023°17'4 8.9
2018-Feb-15 14:00N 37°45' E 023°15'4 8.8
2018-Feb-15 13:30N 37°49' E 023°12'4 8.8
2018-Feb-15 13:00N 37°52' E 023°07'4 8.7
2018-Feb-15 12:30N 37°54' E 023°03'2 3.0
2018-Feb-15 12:01N 37°55' E 023°01'0 0.0
2018-Feb-15 11:30N 37°55' E 023°01'0 0.0
2018-Feb-15 11:00N 37°55' E 023°01'0 0.0
2018-Feb-15 10:31N 37°55' E 023°01'0 0.0
2018-Feb-15 10:01N 37°55' E 023°01'0 0.0
2018-Feb-15 09:31N 37°55' E 023°01'0 0.0
2018-Feb-15 09:00N 37°55' E 023°01'0 0.0
2018-Feb-15 08:30N 37°55' E 023°01'0 0.0
2018-Feb-15 08:01N 37°55' E 023°01'0 0.0
2018-Feb-15 07:30N 37°55' E 023°01'0 0.0
2018-Feb-15 07:00N 37°55' E 023°01'0 0.0
2018-Feb-15 06:30N 37°55' E 023°01'0 0.0
2018-Feb-15 06:00N 37°55' E 023°01'0 0.0
2018-Feb-15 05:30N 37°55' E 023°01'0 0.0
2018-Feb-15 05:00N 37°55' E 023°01'0 0.0
2018-Feb-15 04:30N 37°55' E 023°01'0 0.0
2018-Feb-15 04:01N 37°55' E 023°01'0 0.0
2018-Feb-15 03:31N 37°55' E 023°01'0 0.0
2018-Feb-15 03:00N 37°55' E 023°01'0 0.0
2018-Feb-15 02:31N 37°55' E 023°01'0 0.0
2018-Feb-15 02:00N 37°55' E 023°01'0 0.0
2018-Feb-15 01:30N 37°55' E 023°01'0 0.0
2018-Feb-15 01:00N 37°55' E 023°01'0 0.0
2018-Feb-15 00:30N 37°55' E 023°01'0 0.0
2018-Feb-15 00:01N 37°55' E 023°01'0 0.0
2018-Feb-14 23:30N 37°55' E 023°01'0 0.0
2018-Feb-14 23:01N 37°55' E 023°01'0 0.0
2018-Feb-14 22:31N 37°55' E 023°01'0 0.1
2018-Feb-14 22:01N 37°55' E 023°01'0 0.0
2018-Feb-14 21:31N 37°55' E 023°01'0 0.0
2018-Feb-14 21:01N 37°55' E 023°01'0 0.0
2018-Feb-14 20:30N 37°55' E 023°01'0 0.0
2018-Feb-14 20:00N 37°55' E 023°01'0 0.0
2018-Feb-14 19:30N 37°55' E 023°01'0 0.0
2018-Feb-14 19:01N 37°55' E 023°01'0 0.0
2018-Feb-14 18:30N 37°55' E 023°01'0 0.0
2018-Feb-14 18:01N 37°55' E 023°01'0 0.0
2018-Feb-14 17:30N 37°55' E 023°01'0 0.0
2018-Feb-14 17:00N 37°55' E 023°01'0 0.0
2018-Feb-14 16:31N 37°55' E 023°01'0 0.0
2018-Feb-14 16:01N 37°55' E 023°01'0 0.5
2018-Feb-14 15:30N 37°55' E 023°01'0 0.0
2018-Feb-14 15:00N 37°55' E 023°01'0 0.0
2018-Feb-14 14:31N 37°55' E 023°01'0 0.0
2018-Feb-14 14:00N 37°55' E 023°01'0 0.0
2018-Feb-14 13:31N 37°55' E 023°01'0 0.0
2018-Feb-14 13:01N 37°55' E 023°01'0 0.0
2018-Feb-14 12:31N 37°55' E 023°01'0 0.0
2018-Feb-14 12:01N 37°55' E 023°01'0 0.0
2018-Feb-14 11:30N 37°55' E 023°01'0 0.0
2018-Feb-14 11:01N 37°55' E 023°01'0 0.0
2018-Feb-14 10:31N 37°55' E 023°01'0 0.0
2018-Feb-14 10:01N 37°55' E 023°01'0 0.0
2018-Feb-14 09:30N 37°55' E 023°01'0 0.0
2018-Feb-14 09:01N 37°55' E 023°01'0 0.0
2018-Feb-14 08:31N 37°55' E 023°01'0 0.0
2018-Feb-14 08:01N 37°55' E 023°01'0 0.0
2018-Feb-14 07:31N 37°55' E 023°01'0 0.0
2018-Feb-14 07:00N 37°55' E 023°01'0 0.0
2018-Feb-14 06:30N 37°55' E 023°01'0 0.0
2018-Feb-14 06:01N 37°55' E 023°01'0 0.0
2018-Feb-14 05:31N 37°55' E 023°01'0 0.0
2018-Feb-14 05:01N 37°55' E 023°01'0 0.0
2018-Feb-14 04:30N 37°55' E 023°01'0 0.0
2018-Feb-14 04:00N 37°55' E 023°01'0 0.1
2018-Feb-14 03:30N 37°55' E 023°01'3 6.1
2018-Feb-14 03:00N 37°54' E 023°05'4 7.4
2018-Feb-14 02:30N 37°53' E 023°09'4 7.5
2018-Feb-14 02:01N 37°52' E 023°14'4 7.7
2018-Feb-14 01:30N 37°52' E 023°19'4 7.6
2018-Feb-14 01:00N 37°51' E 023°23'4 7.1
2018-Feb-14 00:31N 37°51' E 023°28'4 7.4
2018-Feb-14 00:01N 37°50' E 023°33'4 7.2
2018-Feb-13 23:30N 37°51' E 023°37'3 6.1
2018-Feb-13 23:01N 37°49' E 023°40'4 7.3
2018-Feb-13 22:31N 37°45' E 023°42'151 6.0
2018-Feb-12 21:29N 40°12' E 024°28'4 8.1
2018-Feb-12 20:59N 40°16' E 024°28'4 8.0
2018-Feb-12 20:30N 40°20' E 024°27'4 8.0
2018-Feb-12 20:00N 40°24' E 024°27'4 7.8
2018-Feb-12 19:26N 40°29' E 024°27'4 7.7
2018-Feb-12 18:57N 40°32' E 024°27'4 7.5
2018-Feb-12 18:29N 40°36' E 024°28'4 8.0
2018-Feb-12 17:59N 40°40' E 024°28'4 8.2
2018-Feb-12 17:30N 40°44' E 024°28'4 8.0
2018-Feb-12 17:00N 40°48' E 024°28'4 7.9
2018-Feb-12 16:31N 40°52' E 024°29'4 7.9
2018-Feb-12 16:01N 40°55' E 024°29'1 2.5
2018-Feb-12 15:31N 40°57' E 024°28'0 0.0
2018-Feb-12 15:01N 40°57' E 024°28'0 0.0
2018-Feb-12 14:31N 40°57' E 024°28'0 0.0
2018-Feb-12 14:01N 40°57' E 024°28'0 0.0
2018-Feb-12 13:30N 40°57' E 024°28'0 0.0
2018-Feb-12 13:00N 40°57' E 024°28'0 0.0
2018-Feb-12 12:30N 40°57' E 024°28'0 0.0
2018-Feb-12 12:01N 40°57' E 024°28'0 0.0
2018-Feb-12 11:30N 40°57' E 024°28'0 0.0
2018-Feb-12 11:01N 40°57' E 024°28'0 0.0
2018-Feb-12 10:31N 40°57' E 024°28'0 0.0
2018-Feb-12 10:00N 40°57' E 024°28'0 0.0
2018-Feb-12 09:31N 40°57' E 024°28'0 0.0
2018-Feb-12 09:01N 40°57' E 024°28'0 0.0
2018-Feb-12 08:30N 40°57' E 024°28'0 0.0
2018-Feb-12 08:00N 40°57' E 024°28'0 0.0
2018-Feb-12 07:31N 40°57' E 024°28'0 0.0
2018-Feb-12 07:01N 40°57' E 024°28'0 0.0
2018-Feb-12 06:30N 40°57' E 024°28'0 0.0
2018-Feb-12 06:00N 40°57' E 024°28'0 0.0
2018-Feb-12 05:30N 40°57' E 024°28'2 3.7
2018-Feb-12 05:01N 40°55' E 024°30'0 0.2
2018-Feb-12 04:30N 40°55' E 024°30'2 4.5
2018-Feb-12 04:01N 40°53' E 024°29'4 8.4
2018-Feb-12 03:30N 40°49' E 024°29'4 8.2
2018-Feb-12 03:00N 40°44' E 024°28'4 8.4
2018-Feb-12 02:30N 40°40' E 024°29'4 8.6
2018-Feb-12 02:00N 40°36' E 024°29'5 8.9
2018-Feb-12 01:28N 40°31' E 024°31'4 8.4
2018-Feb-12 00:59N 40°27' E 024°31'4 8.4
2018-Feb-12 00:30N 40°23' E 024°32'5 8.3
2018-Feb-11 23:57N 40°19' E 024°33'4 8.4
2018-Feb-11 23:26N 40°15' E 024°34'56 7.7
2018-Feb-11 16:06N 39°21' E 024°13'1 6.7
2018-Feb-11 15:56N 39°20' E 024°12'101 2.0
2018-Feb-09 12:31N 37°55' E 023°01'0 0.0
2018-Feb-09 09:31N 37°55' E 023°01'0 0.0
2018-Feb-09 05:31N 37°55' E 023°01'  

Dump ship's entire track history